Time;durP1;ratioP1;P1;durP2;ratioP2;P2;SDS_P1;SDS_P2;PMS_P1;PMS_P2;Temp;Humidity;BMP_temperature;BMP_pressure;BME280_temperature;BME280_humidity;BME280_pressure;Samples;Min_cycle;Max_cycle;Signal;HPM_P1;HPM_P2
2023/10/25 00:00:17;;;;;;;3.80;2.10;;;9.30;53.80;;;;;;4991222;28;20518;-69
2023/10/25 00:02:42;;;;;;;3.87;1.90;;;9.40;54.40;;;;;;5007730;28;20219;-69
2023/10/25 00:05:08;;;;;;;3.10;1.80;;;9.40;54.80;;;;;;5007675;28;20263;-69
2023/10/25 00:07:34;;;;;;;5.30;1.80;;;9.40;54.40;;;;;;4992698;28;20259;-69
2023/10/25 00:10:02;;;;;;;3.90;1.70;;;9.40;54.80;;;;;;5007300;28;20533;-69
2023/10/25 00:12:28;;;;;;;2.83;1.80;;;9.30;54.70;;;;;;4991230;28;20206;-69
2023/10/25 00:14:53;;;;;;;3.77;2.20;;;9.30;54.90;;;;;;4992494;28;20503;-69
2023/10/25 00:17:19;;;;;;;3.10;2.40;;;9.30;54.70;;;;;;4992492;28;20493;-69
2023/10/25 00:19:45;;;;;;;2.63;1.60;;;9.30;55.30;;;;;;4992131;28;20195;-69
2023/10/25 00:22:11;;;;;;;2.83;2.23;;;9.30;54.70;;;;;;4992294;28;20649;-69
2023/10/25 00:24:37;;;;;;;4.23;2.10;;;9.30;54.00;;;;;;4992273;28;20184;-69
2023/10/25 00:27:03;;;;;;;3.00;2.20;;;9.20;54.40;;;;;;4991098;28;20435;-69
2023/10/25 00:29:28;;;;;;;2.50;1.80;;;9.20;53.40;;;;;;5007229;28;20332;-69
2023/10/25 00:31:54;;;;;;;3.30;2.37;;;9.20;53.70;;;;;;4992287;28;20551;-69
2023/10/25 00:34:19;;;;;;;3.07;2.10;;;9.20;53.60;;;;;;4990943;28;20254;-69
2023/10/25 00:36:45;;;;;;;3.10;2.10;;;9.10;54.10;;;;;;5007302;28;20227;-69
2023/10/25 00:39:10;;;;;;;4.40;1.70;;;9.10;53.70;;;;;;4991860;28;20207;-69
2023/10/25 00:41:36;;;;;;;2.53;1.63;;;9.20;54.60;;;;;;4992244;28;20612;-69
2023/10/25 00:44:01;;;;;;;2.63;1.70;;;9.10;53.80;;;;;;4992338;28;20717;-69
2023/10/25 00:46:28;;;;;;;2.80;1.90;;;9.10;53.80;;;;;;5007243;28;20183;-69
2023/10/25 00:48:58;;;;;;;2.40;1.40;;;9.10;54.00;;;;;;4991834;28;20201;-69
2023/10/25 00:51:25;;;;;;;2.20;1.63;;;9.10;53.60;;;;;;5007161;28;20470;-69
2023/10/25 00:53:52;;;;;;;2.00;1.60;;;9.00;53.10;;;;;;4992006;28;20431;-69
2023/10/25 00:56:21;;;;;;;2.93;1.77;;;9.00;53.50;;;;;;5007203;28;20427;-69
2023/10/25 00:58:53;;;;;;;3.07;2.10;;;9.00;53.90;;;;;;4991888;28;20464;-69
2023/10/25 01:01:21;;;;;;;4.60;1.40;;;9.00;54.10;;;;;;5007035;28;20668;-69
2023/10/25 01:03:47;;;;;;;2.53;2.20;;;9.10;53.90;;;;;;5034470;23;20579;-69
2023/10/25 01:06:12;;;;;;;4.83;2.20;;;9.00;52.90;;;;;;5011293;28;20622;-69
2023/10/25 01:08:38;;;;;;;3.37;1.80;;;9.00;53.10;;;;;;5026152;28;20215;-69
2023/10/25 01:11:05;;;;;;;2.73;2.03;;;9.00;53.10;;;;;;5011341;28;20978;-69
2023/10/25 01:13:30;;;;;;;2.60;1.90;;;9.00;53.50;;;;;;5001021;28;20250;-69
2023/10/25 01:15:56;;;;;;;3.70;1.70;;;9.00;53.30;;;;;;4991781;28;20794;-69
2023/10/25 01:18:21;;;;;;;3.33;2.10;;;9.00;54.10;;;;;;4990414;28;20623;-69
2023/10/25 01:20:47;;;;;;;2.20;1.93;;;9.10;54.00;;;;;;4991379;28;20204;-69
2023/10/25 01:23:13;;;;;;;3.93;2.30;;;9.00;53.50;;;;;;4991533;28;20201;-69
2023/10/25 01:25:38;;;;;;;3.07;2.50;;;9.00;53.40;;;;;;4991755;28;20268;-69
2023/10/25 01:28:05;;;;;;;3.30;2.57;;;9.00;53.60;;;;;;4991576;28;20759;-69
2023/10/25 01:30:30;;;;;;;3.37;2.50;;;9.00;53.40;;;;;;4991401;28;20175;-69
2023/10/25 01:32:58;;;;;;;3.00;2.60;;;9.00;53.50;;;;;;4991511;28;20912;-69
2023/10/25 01:35:24;;;;;;;3.87;2.60;;;9.00;53.60;;;;;;4991433;28;20645;-69
2023/10/25 01:37:49;;;;;;;3.43;2.60;;;9.00;53.20;;;;;;4991534;28;20466;-69
2023/10/25 01:40:16;;;;;;;3.13;2.23;;;8.90;52.30;;;;;;4991306;28;21016;-71
2023/10/25 01:42:42;;;;;;;2.73;2.10;;;8.90;51.40;;;;;;4991556;28;20619;-71
2023/10/25 01:45:08;;;;;;;3.73;2.17;;;8.90;51.70;;;;;;4991536;28;20415;-71
2023/10/25 01:47:34;;;;;;;3.10;1.80;;;8.80;51.90;;;;;;4995172;28;20947;-71
2023/10/25 01:49:59;;;;;;;3.50;2.67;;;8.80;51.30;;;;;;4994637;28;20464;-71
2023/10/25 01:52:25;;;;;;;3.30;2.30;;;8.70;50.70;;;;;;4994856;28;20171;-71
2023/10/25 01:54:50;;;;;;;3.00;2.50;;;8.70;51.20;;;;;;4995018;28;20223;-71
2023/10/25 01:57:19;;;;;;;3.20;2.00;;;8.70;51.20;;;;;;4994822;28;20180;-71
2023/10/25 01:59:45;;;;;;;5.30;3.30;;;8.60;51.10;;;;;;4994648;28;20724;-71
2023/10/25 02:02:11;;;;;;;2.87;2.00;;;8.60;50.30;;;;;;4994675;28;20502;-71
2023/10/25 02:04:37;;;;;;;3.00;2.37;;;8.60;51.20;;;;;;4994533;28;20447;-71
2023/10/25 02:07:03;;;;;;;4.33;3.17;;;8.60;51.30;;;;;;4994892;28;20425;-71
2023/10/25 02:09:29;;;;;;;5.17;2.90;;;8.50;51.10;;;;;;4994570;28;20552;-71
2023/10/25 02:11:55;;;;;;;2.90;2.47;;;8.50;51.60;;;;;;4994675;28;20184;-71
2023/10/25 02:14:22;;;;;;;3.50;2.53;;;8.50;51.10;;;;;;5009525;28;20441;-71
2023/10/25 02:16:48;;;;;;;3.23;2.47;;;8.50;51.90;;;;;;4994555;28;20419;-71
2023/10/25 02:19:14;;;;;;;3.80;2.77;;;8.40;51.00;;;;;;4994079;28;20415;-71
2023/10/25 02:21:40;;;;;;;3.40;2.90;;;8.40;52.80;;;;;;5009467;28;20283;-71
2023/10/25 02:24:06;;;;;;;8.40;4.07;;;8.40;51.60;;;;;;4994381;28;20545;-71
2023/10/25 02:26:32;;;;;;;4.53;3.30;;;8.40;52.40;;;;;;4994394;28;20245;-71
2023/10/25 02:28:58;;;;;;;6.60;3.80;;;8.40;52.40;;;;;;4993892;28;20246;-71
2023/10/25 02:31:24;;;;;;;5.43;4.40;;;8.40;51.00;;;;;;4994251;28;20447;-71
2023/10/25 02:33:50;;;;;;;5.50;5.00;;;8.30;52.20;;;;;;4994171;28;21136;-71
2023/10/25 02:36:15;;;;;;;5.00;4.50;;;8.30;51.50;;;;;;4993973;28;20177;-71
2023/10/25 02:38:41;;;;;;;5.37;4.87;;;8.30;52.40;;;;;;4993906;28;20184;-71
2023/10/25 02:41:06;;;;;;;6.53;5.27;;;8.30;52.70;;;;;;4993996;28;20182;-71
2023/10/25 02:43:32;;;;;;;5.60;4.80;;;8.30;53.80;;;;;;5009179;28;20791;-71
2023/10/25 02:46:07;;;;;;;6.63;5.03;;;8.30;54.30;;;;;;4993920;28;20182;-71
2023/10/25 02:48:33;;;;;;;4.13;3.70;;;8.40;54.80;;;;;;4993814;28;20469;-71
2023/10/25 02:50:59;;;;;;;3.80;3.27;;;8.50;55.30;;;;;;4993503;28;20913;-71
2023/10/25 02:53:25;;;;;;;2.93;2.50;;;8.60;54.80;;;;;;4993705;28;20489;-71
2023/10/25 02:55:51;;;;;;;3.10;2.73;;;8.70;54.70;;;;;;5008885;28;20821;-71
2023/10/25 02:58:16;;;;;;;3.80;2.77;;;8.80;54.70;;;;;;4993751;28;20724;-71
2023/10/25 03:00:42;;;;;;;3.50;2.27;;;8.90;54.20;;;;;;4993441;28;20422;-71
2023/10/25 03:03:08;;;;;;;3.00;1.93;;;9.00;51.50;;;;;;4993678;28;20219;-71
2023/10/25 03:05:33;;;;;;;3.10;2.70;;;9.10;49.90;;;;;;4993590;28;20338;-71
2023/10/25 03:07:59;;;;;;;2.73;2.17;;;9.20;48.20;;;;;;4993543;28;20186;-71
2023/10/25 03:10:24;;;;;;;4.17;2.03;;;9.20;46.10;;;;;;4993289;28;20184;-71
2023/10/25 03:12:50;;;;;;;3.90;2.40;;;9.20;45.80;;;;;;4993414;28;20227;-71
2023/10/25 03:15:16;;;;;;;2.87;2.40;;;9.20;46.90;;;;;;4993352;28;20177;-71
2023/10/25 03:17:41;;;;;;;3.10;2.50;;;9.20;47.10;;;;;;4993442;28;20184;-71
2023/10/25 03:20:07;;;;;;;3.40;2.47;;;9.20;46.70;;;;;;4993324;28;20268;-71
2023/10/25 03:22:32;;;;;;;3.53;2.30;;;9.10;46.60;;;;;;5008340;28;20546;-71
2023/10/25 03:24:58;;;;;;;3.10;2.53;;;9.10;44.60;;;;;;4993280;28;20246;-71
2023/10/25 03:27:24;;;;;;;3.73;2.53;;;9.10;44.10;;;;;;4993108;28;20235;-71
2023/10/25 03:29:49;;;;;;;3.07;2.60;;;9.00;43.50;;;;;;4992758;28;20206;-69
2023/10/25 03:32:15;;;;;;;3.83;3.30;;;8.90;44.80;;;;;;4993093;28;20199;-69
2023/10/25 03:34:41;;;;;;;3.70;2.40;;;8.80;44.70;;;;;;4993049;28;20196;-69
2023/10/25 03:37:07;;;;;;;3.67;2.27;;;8.80;45.00;;;;;;4993217;28;20198;-69
2023/10/25 03:39:32;;;;;;;3.97;3.57;;;8.70;45.70;;;;;;4992905;28;20817;-69
2023/10/25 03:41:58;;;;;;;3.47;2.37;;;8.60;46.20;;;;;;4992982;28;20279;-69
2023/10/25 03:44:23;;;;;;;5.53;3.27;;;8.60;45.80;;;;;;4992708;28;20715;-69
2023/10/25 03:46:49;;;;;;;5.47;3.70;;;8.50;46.00;;;;;;4993093;28;20233;-69
2023/10/25 03:49:14;;;;;;;4.63;2.67;;;8.50;46.00;;;;;;4992809;28;20282;-69
2023/10/25 03:51:40;;;;;;;4.00;3.47;;;8.40;46.70;;;;;;4992704;28;20588;-69
2023/10/25 03:54:06;;;;;;;3.40;2.30;;;8.40;48.50;;;;;;4992673;28;20249;-69
2023/10/25 03:56:31;;;;;;;6.57;4.50;;;8.40;48.00;;;;;;4992848;28;20674;-69
2023/10/25 03:58:57;;;;;;;5.60;3.77;;;8.40;48.70;;;;;;4992429;28;20222;-70
2023/10/25 04:01:22;;;;;;;4.87;3.50;;;8.30;49.90;;;;;;4992786;28;20219;-69
2023/10/25 04:03:48;;;;;;;5.13;3.97;;;8.40;51.00;;;;;;4992657;28;20227;-69
2023/10/25 04:06:13;;;;;;;5.03;3.70;;;8.40;51.00;;;;;;5007999;28;20222;-69
2023/10/25 04:08:39;;;;;;;6.13;4.23;;;8.40;51.00;;;;;;5007404;28;20207;-69
2023/10/25 04:11:04;;;;;;;5.67;4.73;;;8.40;51.00;;;;;;4992667;28;20194;-69
2023/10/25 04:13:30;;;;;;;4.67;3.67;;;8.40;51.00;;;;;;5007559;28;20207;-69
2023/10/25 04:15:57;;;;;;;5.97;4.90;;;8.40;51.60;;;;;;4992643;28;20179;-69
2023/10/25 04:18:24;;;;;;;7.13;5.17;;;8.40;51.00;;;;;;4992414;28;20427;-69
2023/10/25 04:20:51;;;;;;;6.47;4.97;;;8.40;51.60;;;;;;4992310;28;20415;-69
2023/10/25 04:23:17;;;;;;;5.43;4.77;;;8.40;51.00;;;;;;4992350;28;20481;-69
2023/10/25 04:25:43;;;;;;;6.83;5.00;;;8.40;52.30;;;;;;4992519;28;20925;-69
2023/10/25 04:28:09;;;;;;;6.30;4.60;;;8.40;51.50;;;;;;4992018;28;20553;-69
2023/10/25 04:30:35;;;;;;;7.20;5.00;;;8.40;51.00;;;;;;4990623;28;20656;-69
2023/10/25 04:33:01;;;;;;;6.70;5.13;;;8.40;52.70;;;;;;4992034;28;20442;-69
2023/10/25 04:35:26;;;;;;;6.73;4.83;;;8.50;52.80;;;;;;4992056;28;20183;-70
2023/10/25 04:37:54;;;;;;;4.97;4.07;;;8.50;52.90;;;;;;4992070;28;20409;-70
2023/10/25 04:40:20;;;;;;;5.70;4.40;;;8.60;52.50;;;;;;5006759;28;20183;-70
2023/10/25 04:42:46;;;;;;;6.37;4.83;;;8.60;52.20;;;;;;5006852;28;20521;-70
2023/10/25 04:45:12;;;;;;;6.90;4.90;;;8.60;51.60;;;;;;4992260;28;20176;-70
2023/10/25 04:47:37;;;;;;;6.43;5.07;;;8.70;51.20;;;;;;4991994;28;20475;-70
2023/10/25 04:50:04;;;;;;;5.90;4.60;;;8.70;51.20;;;;;;5006733;28;20258;-70
2023/10/25 04:52:30;;;;;;;5.57;4.50;;;8.70;51.20;;;;;;4991839;28;20653;-70
2023/10/25 04:54:57;;;;;;;6.27;5.20;;;8.70;51.20;;;;;;4991012;28;20426;-70
2023/10/25 04:57:23;;;;;;;5.10;4.57;;;8.70;51.20;;;;;;4991932;28;20427;-70
2023/10/25 04:59:48;;;;;;;5.73;4.30;;;8.70;51.20;;;;;;4991678;28;20423;-70
2023/10/25 05:02:14;;;;;;;5.20;4.00;;;8.80;50.40;;;;;;4991854;28;20274;-70
2023/10/25 05:04:40;;;;;;;6.30;5.03;;;8.80;49.60;;;;;;4991978;28;20227;-70
2023/10/25 05:07:06;;;;;;;5.10;4.00;;;8.70;49.40;;;;;;4992011;28;20183;-70
2023/10/25 05:09:32;;;;;;;9.93;4.07;;;8.80;49.50;;;;;;4991637;28;20529;-70
2023/10/25 05:12:06;;;;;;;5.97;4.30;;;8.80;49.30;;;;;;4992145;28;20419;-70
2023/10/25 05:14:33;;;;;;;6.50;4.77;;;8.70;49.30;;;;;;4992068;28;20434;-70
2023/10/25 05:16:59;;;;;;;5.67;4.63;;;8.70;48.40;;;;;;4991636;28;20465;-70
2023/10/25 05:19:25;;;;;;;5.23;4.73;;;8.70;47.50;;;;;;4991545;28;20839;-70
2023/10/25 05:21:51;;;;;;;5.10;3.93;;;8.60;47.50;;;;;;4996110;28;20439;-69
2023/10/25 05:24:17;;;;;;;6.60;5.10;;;8.60;48.40;;;;;;4995702;28;20697;-70
2023/10/25 05:26:44;;;;;;;5.30;4.07;;;8.60;47.90;;;;;;5010735;28;20431;-70
2023/10/25 05:29:10;;;;;;;7.60;5.70;;;8.50;47.40;;;;;;4995192;28;20537;-70
2023/10/25 05:31:41;;;;;;;7.00;5.73;;;8.50;47.10;;;;;;4995660;28;20450;-70
2023/10/25 05:34:07;;;;;;;8.07;6.70;;;8.40;47.70;;;;;;4995332;28;20443;-70
2023/10/25 05:36:33;;;;;;;7.33;5.60;;;8.50;48.70;;;;;;4995319;28;20414;-70
2023/10/25 05:39:00;;;;;;;6.77;5.50;;;8.50;49.40;;;;;;4995207;28;20418;-70
2023/10/25 05:41:29;;;;;;;7.37;5.60;;;8.40;48.80;;;;;;4995228;28;20421;-70
2023/10/25 05:44:09;;;;;;;8.00;5.00;;;8.40;49.40;;;;;;5010335;28;20450;-70
2023/10/25 05:46:34;;;;;;;5.53;4.93;;;8.50;51.10;;;;;;4995292;28;20942;-70
2023/10/25 05:49:00;;;;;;;5.37;4.80;;;8.40;50.40;;;;;;4994796;28;20501;-69
2023/10/25 05:51:26;;;;;;;5.53;4.40;;;8.40;49.50;;;;;;4994993;28;20190;-70
2023/10/25 05:53:52;;;;;;;7.30;5.43;;;8.40;51.00;;;;;;4994982;28;21081;-70
2023/10/25 05:56:18;;;;;;;7.90;5.27;;;8.50;51.30;;;;;;4995045;28;20488;-70
2023/10/25 05:58:45;;;;;;;8.27;5.63;;;8.50;51.60;;;;;;4994893;28;20923;-70
2023/10/25 06:01:11;;;;;;;5.80;4.20;;;8.60;52.50;;;;;;4994965;28;20412;-70
2023/10/25 08:01:28;;;;;;;4.70;2.80;;;13.40;9.90;;;;;;4992043;28;20924;-68
2023/10/25 08:03:54;;;;;;;3.97;2.27;;;13.50;8.40;;;;;;5007585;28;20466;-69
2023/10/25 08:06:20;;;;;;;3.50;2.80;;;13.50;8.10;;;;;;5007931;28;20173;-68
2023/10/25 08:08:45;;;;;;;3.40;2.37;;;13.40;8.30;;;;;;5007415;28;20992;-68
2023/10/25 08:11:11;;;;;;;3.00;2.23;;;13.50;7.60;;;;;;4992579;28;20246;-67
2023/10/25 08:13:38;;;;;;;3.47;2.30;;;13.50;8.40;;;;;;5007336;28;20191;-68
2023/10/25 08:16:04;;;;;;;4.03;2.70;;;13.70;7.80;;;;;;5007829;28;20175;-70
2023/10/25 08:18:32;;;;;;;3.73;2.83;;;13.80;6.60;;;;;;5007699;28;20828;-69
2023/10/25 08:20:58;;;;;;;3.03;1.90;;;13.90;7.90;;;;;;5007348;28;20416;-68
2023/10/25 08:23:24;;;;;;;2.50;1.93;;;14.10;5.30;;;;;;4992191;28;20479;-69
2023/10/25 08:25:53;;;;;;;3.20;2.33;;;14.00;4.70;;;;;;4990933;28;20435;-67
2023/10/25 08:28:19;;;;;;;3.07;2.20;;;14.00;5.00;;;;;;4990821;28;20673;-68
2023/10/25 08:30:45;;;;;;;3.23;2.10;;;14.10;3.50;;;;;;5007100;28;20416;-68
2023/10/25 08:33:11;;;;;;;2.60;1.53;;;14.20;4.90;;;;;;4992295;28;20193;-69
2023/10/25 08:35:37;;;;;;;3.50;2.13;;;14.20;4.50;;;;;;4992150;28;20459;-68
2023/10/25 08:38:04;;;;;;;2.90;2.00;;;14.20;4.80;;;;;;5007545;28;20186;-68
2023/10/25 08:40:31;;;;;;;3.53;2.27;;;14.10;4.10;;;;;;4992369;28;20175;-68
2023/10/25 08:43:00;;;;;;;2.10;1.53;;;13.90;3.70;;;;;;4992057;28;20412;-68
2023/10/25 08:45:26;;;;;;;3.07;2.13;;;13.70;4.40;;;;;;5007355;28;20424;-67
2023/10/25 08:47:52;;;;;;;3.07;2.07;;;13.60;5.50;;;;;;4992062;28;20494;-67
2023/10/25 08:50:20;;;;;;;3.40;1.77;;;13.70;5.90;;;;;;4990475;28;20944;-67
2023/10/25 08:52:48;;;;;;;4.93;2.57;;;13.60;5.20;;;;;;4992424;28;20503;-67
2023/10/25 08:55:19;;;;;;;2.80;2.10;;;13.60;6.90;;;;;;4992618;28;20808;-67
2023/10/25 08:57:45;;;;;;;3.43;2.23;;;13.50;6.40;;;;;;4996077;28;20781;-67
2023/10/25 09:00:14;;;;;;;3.03;1.70;;;13.30;7.00;;;;;;4995743;28;20419;-67
2023/10/25 09:02:41;;;;;;;2.83;1.73;;;13.30;7.50;;;;;;5010896;28;20510;-68
2023/10/25 09:05:07;;;;;;;2.73;1.80;;;13.30;7.50;;;;;;5010963;28;20894;-69
2023/10/25 09:07:35;;;;;;;2.43;1.60;;;13.30;8.00;;;;;;4995885;28;20978;-69
2023/10/25 09:10:11;;;;;;;2.80;1.90;;;13.30;8.00;;;;;;5010518;28;20474;-68
2023/10/25 09:12:37;;;;;;;3.67;2.03;;;13.20;7.90;;;;;;5010940;28;20427;-69
2023/10/25 09:15:04;;;;;;;2.90;1.70;;;13.20;8.50;;;;;;5010766;28;20506;-68
2023/10/25 09:17:31;;;;;;;2.33;1.23;;;13.30;9.10;;;;;;5010852;28;20204;-69
2023/10/25 09:19:57;;;;;;;5.40;2.43;;;13.50;8.20;;;;;;5010442;28;20423;-67
2023/10/25 09:22:28;;;;;;;3.07;2.10;;;13.50;7.60;;;;;;4995539;28;20932;-68
2023/10/25 09:24:59;;;;;;;3.53;2.00;;;13.70;8.00;;;;;;4995501;28;20208;-68
2023/10/25 09:27:25;;;;;;;2.47;1.67;;;13.70;6.50;;;;;;4995502;28;20707;-68
2023/10/25 09:29:51;;;;;;;3.67;2.17;;;13.70;6.30;;;;;;5010219;28;20467;-67
2023/10/25 09:32:18;;;;;;;3.20;1.90;;;13.70;6.30;;;;;;4994168;28;20507;-68
2023/10/25 09:34:46;;;;;;;2.80;1.90;;;13.70;7.40;;;;;;5010182;28;20431;-68
2023/10/25 09:37:11;;;;;;;2.73;1.80;;;13.80;6.60;;;;;;5010520;28;20427;-69
2023/10/25 09:39:37;;;;;;;2.40;1.50;;;13.80;6.60;;;;;;5010030;28;20436;-68
2023/10/25 09:42:06;;;;;;;2.77;1.73;;;14.00;7.60;;;;;;4995220;28;20203;-68
2023/10/25 09:44:54;;;;;;;3.10;1.80;;;14.20;7.40;;;;;;4995163;28;20582;-68
2023/10/25 09:47:28;;;;;;;3.30;1.93;;;14.40;4.40;;;;;;5010091;28;20427;-68
2023/10/25 09:50:14;;;;;;;2.47;1.40;;;14.70;4.20;;;;;;4994633;28;20498;-68
2023/10/25 09:52:45;;;;;;;3.77;1.40;;;14.90;4.00;;;;;;4993820;28;20940;-69
2023/10/25 09:55:23;;;;;;;3.23;1.60;;;15.20;2.90;;;;;;5009955;28;20416;-68
2023/10/25 09:57:51;;;;;;;5.73;2.90;;;15.40;1.00;;;;;;4994922;28;20427;-68
2023/10/25 10:00:17;;;;;;;2.50;1.70;;;15.60;1.00;;;;;;4994543;28;20485;-68
2023/10/25 10:03:08;;;;;;;2.40;1.20;;;15.70;1.00;;;;;;4994666;28;20442;-68
2023/10/25 10:05:58;;;;;;;2.60;1.43;;;15.70;1.00;;;;;;4994760;28;20475;-68
2023/10/25 10:08:46;;;;;;;3.40;1.40;;;15.80;1.00;;;;;;4983665;28;20512;-68
2023/10/25 10:11:16;;;;;;;3.10;1.53;;;15.90;1.00;;;;;;4994879;28;20451;-69
2023/10/25 10:13:42;;;;;;;2.40;1.23;;;16.00;1.00;;;;;;5009650;28;20432;-68
2023/10/25 10:16:09;;;;;;;4.80;1.60;;;16.30;1.00;;;;;;4994649;28;20944;-68
2023/10/25 10:18:38;;;;;;;4.07;1.57;;;16.50;1.00;;;;;;5009405;28;20693;-68
2023/10/25 10:21:06;;;;;;;4.60;2.30;;;16.80;1.00;;;;;;4994306;28;20462;-68
2023/10/25 10:23:53;;;;;;;1.97;1.17;;;16.60;1.00;;;;;;5009299;28;20443;-68
2023/10/25 10:26:57;;;;;;;2.97;1.40;;;16.70;1.00;;;;;;4994498;28;20435;-68
2023/10/25 10:29:31;;;;;;;3.03;1.50;;;16.70;1.00;;;;;;4991523;28;20535;-68
2023/10/25 10:32:04;;;;;;;2.07;1.10;;;16.40;1.00;;;;;;4975487;28;20416;-69
2023/10/25 10:34:52;;;;;;;2.60;1.23;;;16.50;1.00;;;;;;4993239;28;20448;-68
2023/10/25 10:37:21;;;;;;;2.00;1.17;;;16.40;1.00;;;;;;5009198;28;20424;-67
2023/10/25 10:39:56;;;;;;;2.20;1.40;;;16.40;1.00;;;;;;5009076;28;20507;-68
2023/10/25 10:42:34;;;;;;;2.10;1.43;;;16.50;1.00;;;;;;5008936;28;20411;-68
2023/10/25 10:45:05;;;;;;;2.20;1.30;;;16.50;1.00;;;;;;4994106;28;20431;-68
2023/10/25 10:47:39;;;;;;;2.77;1.60;;;16.70;1.00;;;;;;5009156;28;20431;-68
2023/10/25 10:50:12;;;;;;;2.23;1.30;;;16.70;1.00;;;;;;5008819;28;20510;-69
2023/10/25 10:52:42;;;;;;;2.50;1.20;;;16.70;1.00;;;;;;4993911;28;20408;-68
2023/10/25 10:55:09;;;;;;;3.30;1.10;;;16.60;1.00;;;;;;4993924;28;20426;-67
2023/10/25 10:57:36;;;;;;;2.57;1.30;;;16.30;1.00;;;;;;4993823;28;20920;-68
2023/10/25 11:00:08;;;;;;;3.53;1.43;;;16.20;1.00;;;;;;4993530;28;20426;-68
2023/10/25 11:02:36;;;;;;;2.60;1.33;;;16.30;1.00;;;;;;4993628;28;20416;-67
2023/10/25 11:05:02;;;;;;;2.10;1.20;;;16.30;1.00;;;;;;5008759;28;20533;-67
2023/10/25 11:07:27;;;;;;;2.40;1.67;;;16.30;1.00;;;;;;4992511;28;20432;-67
2023/10/25 11:09:53;;;;;;;2.37;1.40;;;16.50;1.00;;;;;;5008225;28;20471;-67
2023/10/25 11:12:19;;;;;;;2.47;1.70;;;16.60;1.00;;;;;;4993555;28;20173;-69
2023/10/25 11:14:47;;;;;;;3.10;1.70;;;16.80;1.00;;;;;;5008332;28;20230;-67
2023/10/25 11:17:13;;;;;;;3.23;2.63;;;16.90;1.00;;;;;;5008581;28;20176;-69
2023/10/25 11:19:40;;;;;;;2.63;1.10;;;16.90;1.00;;;;;;5007157;28;20470;-67
2023/10/25 11:22:06;;;;;;;2.03;1.27;;;16.70;1.00;;;;;;4992014;28;20184;-68
2023/10/25 11:24:34;;;;;;;2.47;1.60;;;16.80;1.00;;;;;;5008178;28;20964;-68
2023/10/25 11:27:01;;;;;;;3.30;1.60;;;16.80;1.00;;;;;;4993192;28;20196;-67
2023/10/25 11:29:27;;;;;;;2.90;1.43;;;17.00;1.00;;;;;;4992590;28;20897;-68
2023/10/25 11:31:55;;;;;;;2.43;1.33;;;17.20;1.00;;;;;;4991718;28;20420;-67
2023/10/25 11:34:21;;;;;;;2.10;1.10;;;17.20;1.00;;;;;;4992930;28;20239;-67
2023/10/25 11:36:47;;;;;;;2.23;1.13;;;17.40;1.00;;;;;;4993005;28;20419;-68
2023/10/25 11:39:13;;;;;;;2.50;1.37;;;17.70;1.00;;;;;;4992516;28;20586;-68
2023/10/25 11:41:39;;;;;;;1.80;0.90;;;17.60;1.00;;;;;;4992866;28;20897;-69
2023/10/25 11:44:06;;;;;;;2.00;1.03;;;17.30;1.00;;;;;;4992598;28;20495;-67
2023/10/25 11:46:41;;;;;;;2.57;1.13;;;17.20;1.00;;;;;;4992884;28;20593;-68
2023/10/25 11:49:07;;;;;;;2.33;1.30;;;17.40;1.00;;;;;;4992568;28;20550;-68
2023/10/25 11:51:34;;;;;;;3.10;1.20;;;17.30;1.00;;;;;;4992910;28;20420;-67
2023/10/25 11:54:04;;;;;;;2.80;1.30;;;17.40;1.00;;;;;;4994012;28;20526;-70
2023/10/25 11:56:30;;;;;;;2.07;1.07;;;17.60;1.00;;;;;;5007937;28;20498;-69
2023/10/25 11:58:56;;;;;;;3.63;1.40;;;17.50;1.00;;;;;;4992773;28;20474;-68
2023/10/25 12:01:21;;;;;;;3.47;1.50;;;17.30;1.00;;;;;;5008027;28;20424;-69
2023/10/25 12:03:47;;;;;;;1.97;1.10;;;17.40;1.00;;;;;;5007530;28;20220;-68
2023/10/25 12:06:12;;;;;;;2.53;1.30;;;17.40;1.00;;;;;;4992737;28;20211;-69
2023/10/25 12:08:42;;;;;;;1.80;1.00;;;17.50;1.00;;;;;;4992430;28;20225;-68
2023/10/25 12:11:10;;;;;;;1.83;0.90;;;17.70;1.00;;;;;;5007364;28;20544;-69
2023/10/25 12:13:37;;;;;;;2.03;1.20;;;17.90;1.00;;;;;;4992381;28;20482;-69
2023/10/25 12:16:02;;;;;;;2.30;1.13;;;17.90;1.00;;;;;;5007631;28;20952;-68
2023/10/25 12:18:28;;;;;;;2.30;1.40;;;17.90;1.00;;;;;;4992406;28;20424;-69
2023/10/25 12:20:54;;;;;;;2.40;1.60;;;17.90;1.00;;;;;;4992018;28;20618;-70
2023/10/25 12:23:19;;;;;;;1.73;1.00;;;17.90;1.00;;;;;;4992197;28;20200;-68
2023/10/25 12:25:45;;;;;;;2.20;1.33;;;18.10;1.00;;;;;;4992199;28;20180;-68
2023/10/25 12:28:11;;;;;;;2.00;1.33;;;18.10;1.00;;;;;;5007396;28;20184;-69
2023/10/25 12:30:36;;;;;;;2.63;1.60;;;18.30;1.00;;;;;;4990360;28;20416;-68
2023/10/25 12:33:02;;;;;;;2.53;1.57;;;18.30;1.00;;;;;;5007218;28;20197;-68
2023/10/25 12:35:28;;;;;;;2.70;1.53;;;18.40;1.00;;;;;;4992217;28;20177;-67
2023/10/25 12:37:53;;;;;;;2.97;1.40;;;18.20;1.00;;;;;;4992228;28;20270;-68
2023/10/25 12:40:19;;;;;;;2.40;1.70;;;18.10;1.00;;;;;;4990685;28;20614;-68
2023/10/25 12:42:44;;;;;;;2.50;1.30;;;18.10;1.00;;;;;;4992284;28;20181;-69
2023/10/25 12:45:10;;;;;;;2.07;1.20;;;18.10;1.00;;;;;;5007033;28;20658;-68
2023/10/25 12:47:35;;;;;;;2.10;1.20;;;17.90;1.00;;;;;;4992409;28;20667;-68
2023/10/25 12:50:04;;;;;;;2.00;1.20;;;17.90;1.00;;;;;;5010583;28;21568;-68
2023/10/25 12:52:30;;;;;;;2.00;1.07;;;17.70;1.00;;;;;;5026703;28;20423;-68
2023/10/25 12:54:55;;;;;;;2.17;1.17;;;17.50;1.00;;;;;;5011456;28;20454;-67
2023/10/25 12:57:21;;;;;;;2.50;1.23;;;17.40;1.00;;;;;;5011480;28;20214;-68
2023/10/25 12:59:46;;;;;;;2.53;1.50;;;17.40;1.00;;;;;;5026273;28;20234;-69
2023/10/25 13:02:12;;;;;;;2.60;1.57;;;17.60;1.00;;;;;;5011575;28;20238;-68
2023/10/25 13:04:38;;;;;;;2.10;1.20;;;17.70;1.00;;;;;;5065852;22;20230;-68
2023/10/25 13:07:05;;;;;;;3.20;1.67;;;17.70;1.00;;;;;;5031250;28;20168;-68
2023/10/25 13:09:31;;;;;;;2.37;1.67;;;17.50;1.00;;;;;;5031014;28;20969;-68
2023/10/25 13:11:56;;;;;;;2.03;1.13;;;17.60;1.00;;;;;;5029966;28;20479;-68
2023/10/25 13:14:22;;;;;;;2.93;1.30;;;17.50;1.00;;;;;;5018970;28;20253;-68
2023/10/25 13:16:48;;;;;;;3.43;1.57;;;17.60;1.00;;;;;;5011504;28;20544;-68
2023/10/25 13:19:13;;;;;;;1.80;1.10;;;17.40;1.00;;;;;;5011296;28;20724;-68
2023/10/25 13:21:41;;;;;;;2.50;1.40;;;17.40;1.00;;;;;;5011359;28;20175;-69
2023/10/25 13:24:12;;;;;;;3.93;1.90;;;17.30;1.00;;;;;;5026462;28;20287;-68
2023/10/25 13:26:37;;;;;;;2.83;1.47;;;17.20;1.00;;;;;;5010151;28;20463;-68
2023/10/25 13:29:03;;;;;;;2.23;1.30;;;17.10;1.00;;;;;;5011287;28;20489;-68
2023/10/25 13:31:28;;;;;;;2.80;1.20;;;17.00;1.00;;;;;;5026592;28;20581;-68
2023/10/25 13:33:54;;;;;;;2.63;1.70;;;16.90;1.00;;;;;;5011269;28;20676;-68
2023/10/25 13:36:19;;;;;;;2.10;1.30;;;16.80;1.00;;;;;;5011209;28;20251;-67
2023/10/25 13:38:45;;;;;;;2.07;0.97;;;16.80;1.00;;;;;;5009790;28;20267;-68
2023/10/25 13:41:11;;;;;;;4.50;1.13;;;16.70;1.00;;;;;;5011536;28;20187;-68
2023/10/25 13:43:39;;;;;;;2.10;0.90;;;16.60;1.00;;;;;;5015066;28;20199;-68
2023/10/25 13:46:06;;;;;;;1.90;0.90;;;16.40;1.00;;;;;;5015239;28;20656;-68
2023/10/25 13:48:32;;;;;;;1.90;1.00;;;16.30;1.00;;;;;;5015579;28;20853;-68
2023/10/25 13:50:58;;;;;;;2.20;1.00;;;16.10;1.00;;;;;;5014861;28;20406;-68
2023/10/25 13:53:23;;;;;;;3.20;0.83;;;15.90;1.00;;;;;;5014852;28;20503;-68
2023/10/25 13:55:49;;;;;;;1.97;0.83;;;15.80;1.00;;;;;;5014845;28;20180;-69
2023/10/25 13:58:14;;;;;;;2.30;0.83;;;15.70;1.00;;;;;;5014875;28;20211;-68
2023/10/25 14:00:41;;;;;;;2.33;0.83;;;15.60;1.00;;;;;;5014627;28;20183;-68
2023/10/25 14:03:06;;;;;;;2.33;0.70;;;15.40;1.00;;;;;;5014871;28;20580;-68
2023/10/25 14:05:33;;;;;;;2.03;0.60;;;15.30;2.30;;;;;;5014558;28;20403;-70
2023/10/25 14:07:59;;;;;;;1.90;0.77;;;15.30;4.30;;;;;;5014730;28;20172;-70
2023/10/25 14:10:24;;;;;;;2.73;1.10;;;15.30;4.40;;;;;;5014661;28;20982;-68
2023/10/25 14:12:52;;;;;;;1.97;1.00;;;15.60;4.50;;;;;;5014620;28;20656;-70
2023/10/25 14:15:18;;;;;;;2.27;1.50;;;15.80;4.70;;;;;;5014555;28;20207;-70
2023/10/25 14:17:43;;;;;;;2.20;1.30;;;15.80;4.70;;;;;;5014366;28;20509;-68
2023/10/25 14:20:10;;;;;;;3.00;1.60;;;15.60;5.40;;;;;;5013881;28;20183;-69
2023/10/25 14:22:35;;;;;;;3.50;1.40;;;15.40;5.70;;;;;;5014377;28;20176;-68
2023/10/25 14:25:01;;;;;;;3.13;1.83;;;15.40;6.80;;;;;;5014241;28;20434;-68
2023/10/25 14:27:26;;;;;;;3.17;1.40;;;15.50;7.90;;;;;;5014111;28;20207;-68
2023/10/25 14:29:52;;;;;;;3.07;1.80;;;15.50;9.00;;;;;;5013930;28;20783;-68
2023/10/25 14:32:18;;;;;;;4.97;1.77;;;15.40;8.30;;;;;;5012884;28;20649;-68
2023/10/25 14:34:43;;;;;;;2.20;1.20;;;15.30;7.50;;;;;;5013938;28;20200;-69
2023/10/25 14:37:09;;;;;;;3.00;1.67;;;15.30;8.80;;;;;;5014088;28;20176;-68
2023/10/25 14:39:34;;;;;;;2.33;1.37;;;15.30;7.00;;;;;;5013830;28;20262;-68
2023/10/25 14:42:01;;;;;;;2.63;1.17;;;15.30;6.80;;;;;;5029113;28;20270;-68
2023/10/25 14:44:26;;;;;;;2.73;0.83;;;15.20;7.90;;;;;;5013946;28;20634;-68
2023/10/25 14:46:52;;;;;;;2.00;0.87;;;15.20;8.10;;;;;;5013920;28;20410;-68
2023/10/25 14:49:18;;;;;;;3.57;1.10;;;15.20;7.30;;;;;;5013422;28;20287;-68
2023/10/25 14:51:43;;;;;;;3.40;1.57;;;15.10;7.70;;;;;;5013806;28;20501;-68
2023/10/25 14:54:09;;;;;;;3.20;1.90;;;15.10;9.10;;;;;;5012054;28;20192;-68